createdAt,value
2022-12-08T00:01:04.590Z,1.48
2022-12-08T00:03:31.108Z,1.49
2022-12-08T00:06:16.112Z,1.49
2022-12-08T00:09:00.958Z,1.54
2022-12-08T00:11:27.348Z,1.52
2022-12-08T00:13:53.728Z,1.57
2022-12-08T00:16:20.154Z,1.54
2022-12-08T00:18:46.610Z,1.54
2022-12-08T00:21:13.006Z,1.51
2022-12-08T00:23:39.445Z,1.57
2022-12-08T00:26:06.080Z,1.64
2022-12-08T00:28:33.957Z,1.62
2022-12-08T00:31:06.706Z,1.63
2022-12-08T00:33:34.277Z,1.61
2022-12-08T00:36:05.909Z,1.56
2022-12-08T00:38:32.351Z,1.52
2022-12-08T00:40:58.783Z,1.55
2022-12-08T00:43:25.266Z,1.52
2022-12-08T00:45:51.694Z,1.51
2022-12-08T00:48:18.276Z,1.56
2022-12-08T00:50:44.677Z,1.64
2022-12-08T00:53:11.103Z,1.65
2022-12-08T00:55:37.618Z,1.56
2022-12-08T00:58:04.057Z,1.58
2022-12-08T01:00:30.422Z,1.53
2022-12-08T01:02:56.881Z,1.50
2022-12-08T01:05:23.316Z,1.51
2022-12-08T01:07:49.758Z,1.48
2022-12-08T01:10:16.485Z,1.45
2022-12-08T01:12:45.922Z,1.54
2022-12-08T01:15:12.318Z,1.51
2022-12-08T01:17:38.729Z,1.49
2022-12-08T01:20:06.277Z,1.53
2022-12-08T01:22:34.870Z,1.54
2022-12-08T01:25:01.522Z,1.53
2022-12-08T01:27:27.936Z,1.46
2022-12-08T01:29:54.385Z,1.48
2022-12-08T01:32:20.823Z,1.51
2022-12-08T01:34:47.291Z,1.55
2022-12-08T01:37:13.753Z,1.58
2022-12-08T01:39:41.239Z,1.58
2022-12-08T01:42:19.695Z,1.61
2022-12-08T01:44:52.049Z,1.62
2022-12-08T01:47:18.596Z,1.62
2022-12-08T01:49:45.095Z,1.61
2022-12-08T01:52:17.969Z,1.59
2022-12-08T01:54:56.017Z,1.57
2022-12-08T01:57:35.954Z,1.58
2022-12-08T02:00:09.947Z,1.57
2022-12-08T02:02:52.773Z,1.57
2022-12-08T02:05:22.321Z,1.54
2022-12-08T02:07:49.713Z,1.50
2022-12-08T02:10:20.509Z,1.48
2022-12-08T02:12:48.047Z,1.46
2022-12-08T02:15:15.663Z,1.44
2022-12-08T02:17:58.330Z,1.37
2022-12-08T02:20:43.548Z,1.37
2022-12-08T02:23:31.625Z,1.37
2022-12-08T02:26:19.394Z,1.41
2022-12-08T02:29:04.661Z,1.40
2022-12-08T02:31:49.265Z,1.32
2022-12-08T02:34:47.422Z,1.26
2022-12-08T02:37:37.204Z,1.25
2022-12-08T02:40:21.390Z,1.25
2022-12-08T02:43:00.484Z,1.20
2022-12-08T02:45:52.433Z,1.08
2022-12-08T02:48:19.008Z,1.16
2022-12-08T02:50:45.392Z,1.12
2022-12-08T02:55:49.308Z,1.21
2022-12-08T02:58:30.716Z,1.21
2022-12-08T03:01:00.056Z,1.29
2022-12-08T03:03:39.346Z,1.28
2022-12-08T03:06:18.439Z,1.22
2022-12-08T03:09:32.838Z,1.18
2022-12-08T03:12:10.235Z,1.18
2022-12-08T03:14:37.697Z,1.19
2022-12-08T03:17:04.863Z,1.23
2022-12-08T03:19:35.593Z,1.38
2022-12-08T03:22:04.828Z,1.25
2022-12-08T03:24:34.981Z,1.24
2022-12-08T03:27:12.168Z,1.21
2022-12-08T03:29:38.571Z,1.17
2022-12-08T03:32:16.072Z,1.14
2022-12-08T03:34:46.085Z,1.22
2022-12-08T03:37:12.498Z,1.22
2022-12-08T03:39:38.980Z,1.29
2022-12-08T03:42:05.462Z,1.25
2022-12-08T03:44:31.897Z,1.34
2022-12-08T03:46:58.271Z,1.36
2022-12-08T03:49:24.823Z,1.35
2022-12-08T03:51:51.323Z,1.34
2022-12-08T03:54:17.776Z,1.32
2022-12-08T03:56:44.145Z,1.37
2022-12-08T03:59:10.610Z,1.42
2022-12-08T04:01:37.064Z,1.53
2022-12-08T04:04:03.545Z,1.45
2022-12-08T04:06:30.141Z,1.40
2022-12-08T04:08:56.555Z,1.48
2022-12-08T04:11:22.965Z,1.46
2022-12-08T04:13:49.908Z,1.44
2022-12-08T04:16:19.855Z,1.42
2022-12-08T04:18:46.492Z,1.43
2022-12-08T04:21:13.433Z,1.37
2022-12-08T04:23:39.931Z,1.41
2022-12-08T04:26:06.319Z,1.53
2022-12-08T04:28:32.909Z,1.49
2022-12-08T04:30:59.583Z,1.54
2022-12-08T04:33:26.201Z,1.57
2022-12-08T04:35:52.832Z,1.51
2022-12-08T04:38:19.289Z,1.50
2022-12-08T04:40:45.784Z,1.51
2022-12-08T04:43:12.155Z,1.51
2022-12-08T04:45:42.634Z,1.56
2022-12-08T04:48:09.385Z,1.57
2022-12-08T04:50:35.736Z,1.56
2022-12-08T04:53:02.137Z,1.60
2022-12-08T04:55:28.585Z,1.61
2022-12-08T04:57:54.971Z,1.53
2022-12-08T05:00:21.436Z,1.60
2022-12-08T05:02:48.036Z,1.66
2022-12-08T05:05:14.476Z,1.63
2022-12-08T05:07:40.972Z,1.62
2022-12-08T05:10:08.360Z,1.62
2022-12-08T05:12:34.768Z,1.64
2022-12-08T05:15:01.127Z,1.51
2022-12-08T05:17:27.489Z,1.50
2022-12-08T05:19:53.906Z,1.49
2022-12-08T05:22:20.286Z,1.49
2022-12-08T05:24:47.774Z,1.45
2022-12-08T05:27:14.715Z,1.49
2022-12-08T05:29:41.111Z,1.50
2022-12-08T05:32:07.574Z,1.53
2022-12-08T05:34:34.125Z,1.51
2022-12-08T05:37:00.602Z,1.43
2022-12-08T05:39:27.058Z,1.48
2022-12-08T05:41:53.435Z,1.32
2022-12-08T05:44:19.864Z,1.24
2022-12-08T05:46:46.340Z,1.24
2022-12-08T05:49:12.765Z,1.25
2022-12-08T05:51:39.246Z,1.18
2022-12-08T05:54:05.688Z,1.21
2022-12-08T05:56:32.077Z,1.17
2022-12-08T05:58:58.473Z,1.18
2022-12-08T06:01:30.451Z,1.21
2022-12-08T06:03:58.094Z,1.19
2022-12-08T06:06:24.558Z,1.15
2022-12-08T06:08:51.048Z,1.18
2022-12-08T06:11:22.419Z,1.18
2022-12-08T06:13:49.756Z,1.15
2022-12-08T06:16:16.201Z,1.13
2022-12-08T06:18:42.595Z,1.17
2022-12-08T06:21:12.037Z,1.18
2022-12-08T06:23:39.002Z,1.21
2022-12-08T06:26:08.478Z,1.29
2022-12-08T06:28:35.920Z,1.25
2022-12-08T06:31:08.608Z,1.29
2022-12-08T06:33:35.078Z,1.12
2022-12-08T06:36:01.428Z,1.16
2022-12-08T06:38:28.085Z,1.21
2022-12-08T06:40:55.808Z,1.26
2022-12-08T06:43:22.557Z,1.28
2022-12-08T06:45:49.130Z,1.28
2022-12-08T06:48:16.397Z,1.26
2022-12-08T06:50:43.128Z,1.29
2022-12-08T06:53:14.981Z,1.25
2022-12-08T06:55:59.183Z,1.37
2022-12-08T06:58:26.331Z,1.26
2022-12-08T07:00:53.518Z,1.24
2022-12-08T07:03:19.978Z,1.33
2022-12-08T07:05:46.433Z,1.24
2022-12-08T07:08:12.881Z,1.28
2022-12-08T07:10:39.364Z,1.32
2022-12-08T07:13:05.752Z,1.46
2022-12-08T07:15:32.128Z,1.50
2022-12-08T07:18:00.388Z,1.42
2022-12-08T07:20:27.237Z,1.40
2022-12-08T07:22:54.321Z,1.57
2022-12-08T07:25:21.032Z,1.57
2022-12-08T07:27:48.093Z,1.46
2022-12-08T07:30:14.948Z,1.45
2022-12-08T07:32:41.433Z,1.48
2022-12-08T07:35:08.593Z,1.57
2022-12-08T07:37:36.161Z,1.51
2022-12-08T07:40:03.657Z,1.56
2022-12-08T07:42:30.280Z,1.53
2022-12-08T07:44:56.661Z,1.65
2022-12-08T07:47:23.010Z,1.68
2022-12-08T07:49:49.414Z,1.65
2022-12-08T07:52:15.776Z,1.63
2022-12-08T07:54:42.185Z,1.58
2022-12-08T07:57:09.862Z,1.60
2022-12-08T07:59:36.363Z,1.69
2022-12-08T08:02:22.886Z,1.68
2022-12-08T08:04:52.386Z,1.73
2022-12-08T08:07:18.859Z,1.69
2022-12-08T08:09:45.925Z,1.82
2022-12-08T08:14:59.904Z,1.77
2022-12-08T08:17:26.394Z,1.77
2022-12-08T08:19:52.926Z,1.86
2022-12-08T08:22:19.260Z,1.91
2022-12-08T08:24:45.646Z,1.99
2022-12-08T08:27:12.235Z,2.04
2022-12-08T08:29:38.625Z,2.09
2022-12-08T08:32:05.119Z,2.16
2022-12-08T08:34:31.494Z,2.37
2022-12-08T08:36:57.917Z,2.43
2022-12-08T08:39:24.354Z,2.75
2022-12-08T08:41:50.835Z,3.08
2022-12-08T08:44:17.292Z,3.22
2022-12-08T08:46:43.687Z,3.55
2022-12-08T08:49:10.101Z,3.84
2022-12-08T08:51:36.564Z,3.91
2022-12-08T08:54:03.049Z,4.00
2022-12-08T08:56:29.528Z,4.19
2022-12-08T08:58:56.031Z,4.26
2022-12-08T09:01:25.642Z,4.21
2022-12-08T09:03:52.456Z,4.47
2022-12-08T09:06:19.604Z,4.47
2022-12-08T09:08:47.101Z,4.32
2022-12-08T09:11:14.115Z,4.22
2022-12-08T09:13:40.685Z,4.44
2022-12-08T09:16:08.411Z,4.42
2022-12-08T09:18:35.297Z,4.56
2022-12-08T09:21:13.051Z,4.68
2022-12-08T09:23:39.517Z,4.48
2022-12-08T09:26:06.435Z,4.22
2022-12-08T09:28:33.556Z,4.05
2022-12-08T09:31:00.213Z,3.78
2022-12-08T09:33:27.274Z,3.90
2022-12-08T09:35:53.718Z,3.90
2022-12-08T09:38:20.143Z,4.15
2022-12-08T09:40:52.468Z,4.45
2022-12-08T09:43:34.015Z,4.36
2022-12-08T09:46:04.711Z,4.51
2022-12-08T09:48:35.679Z,4.50
2022-12-08T09:51:03.784Z,4.76
2022-12-08T09:53:53.372Z,4.95
2022-12-08T09:56:24.370Z,5.29
2022-12-08T09:58:58.532Z,5.58
2022-12-08T10:01:29.608Z,5.82
2022-12-08T10:03:56.487Z,5.85
2022-12-08T10:06:40.618Z,5.99
2022-12-08T10:09:44.233Z,5.85
2022-12-08T10:12:30.801Z,5.94
2022-12-08T10:15:35.463Z,5.96
2022-12-08T10:18:03.810Z,6.04
2022-12-08T10:20:37.537Z,6.09
2022-12-08T10:23:12.883Z,6.17
2022-12-08T10:25:50.969Z,5.82
2022-12-08T10:28:17.335Z,5.50
2022-12-08T10:30:44.062Z,5.09
2022-12-08T10:33:15.518Z,4.89
2022-12-08T10:35:45.559Z,4.73
2022-12-08T10:38:30.855Z,4.56
2022-12-08T10:41:13.139Z,4.37
2022-12-08T10:43:43.026Z,4.31
2022-12-08T10:46:21.609Z,4.31
2022-12-08T10:48:53.091Z,4.39
2022-12-08T10:51:35.496Z,4.24
2022-12-08T10:54:02.066Z,4.26
2022-12-08T10:56:30.643Z,4.27
2022-12-08T10:59:19.216Z,4.17
2022-12-08T11:01:51.228Z,4.26
2022-12-08T11:04:20.705Z,4.11
2022-12-08T11:06:49.296Z,4.29
2022-12-08T11:09:15.728Z,4.29
2022-12-08T11:11:49.018Z,4.32
2022-12-08T11:14:22.137Z,4.28
2022-12-08T11:17:08.368Z,4.30
2022-12-08T11:19:44.651Z,4.24
2022-12-08T11:22:23.989Z,4.38
2022-12-08T11:25:12.562Z,4.48
2022-12-08T11:27:43.464Z,4.55
2022-12-08T11:30:18.129Z,4.57
2022-12-08T11:32:47.255Z,4.63
2022-12-08T11:35:37.195Z,4.67
2022-12-08T11:38:23.831Z,4.73
2022-12-08T11:41:00.165Z,4.60
2022-12-08T11:43:52.737Z,4.48
2022-12-08T11:46:32.376Z,4.54
2022-12-08T11:49:06.680Z,4.57
2022-12-08T11:52:05.329Z,4.52
2022-12-08T11:54:51.057Z,4.47
2022-12-08T11:57:20.682Z,4.43
2022-12-08T11:59:54.469Z,4.40
2022-12-08T12:02:25.069Z,4.35
2022-12-08T12:04:57.439Z,4.40
2022-12-08T12:08:03.758Z,4.31
2022-12-08T12:10:35.907Z,4.39
2022-12-08T12:13:28.079Z,4.35
2022-12-08T12:16:32.279Z,4.37
2022-12-08T12:19:12.347Z,4.36
2022-12-08T12:22:01.742Z,4.40
2022-12-08T12:24:36.199Z,4.31
2022-12-08T12:27:16.876Z,4.29
2022-12-08T12:30:04.505Z,4.24
2022-12-08T12:32:48.901Z,4.37
2022-12-08T12:35:26.835Z,4.33
2022-12-08T12:37:58.071Z,4.26
2022-12-08T12:40:28.467Z,4.29
2022-12-08T12:42:54.902Z,4.37
2022-12-08T12:45:21.281Z,4.42
2022-12-08T12:47:57.779Z,4.52
2022-12-08T12:50:33.649Z,4.53
2022-12-08T12:53:16.989Z,4.40
2022-12-08T12:55:46.559Z,4.40
2022-12-08T12:58:20.292Z,4.37
2022-12-08T13:00:46.712Z,4.26
2022-12-08T13:03:16.417Z,4.30
2022-12-08T13:05:52.190Z,4.21
2022-12-08T13:08:24.355Z,4.20
2022-12-08T13:11:03.078Z,4.02
2022-12-08T13:13:29.592Z,4.02
2022-12-08T13:16:15.386Z,3.99
2022-12-08T13:18:50.241Z,3.91
2022-12-08T13:21:20.784Z,3.98
2022-12-08T13:24:10.172Z,3.93
2022-12-08T13:27:02.932Z,3.90
2022-12-08T13:29:30.529Z,3.97
2022-12-08T13:31:57.157Z,4.02
2022-12-08T13:34:49.210Z,3.96
2022-12-08T13:37:25.472Z,3.88
2022-12-08T13:39:54.766Z,3.91
2022-12-08T13:42:24.910Z,3.88
2022-12-08T13:45:21.323Z,3.82
2022-12-08T13:57:05.521Z,3.63
2022-12-08T13:59:34.102Z,3.57
2022-12-08T14:02:14.228Z,3.47
2022-12-08T14:05:16.894Z,3.40
2022-12-08T14:07:33.625Z,3.27
2022-12-08T14:10:03.442Z,3.34
2022-12-08T14:12:31.366Z,3.36
2022-12-08T14:15:04.970Z,3.39
2022-12-08T14:17:32.749Z,3.23
2022-12-08T14:20:25.213Z,3.13
2022-12-08T14:22:53.223Z,3.09
2022-12-08T14:25:21.569Z,3.08
2022-12-08T14:27:48.505Z,2.98
2022-12-08T14:30:37.093Z,2.97
2022-12-08T14:33:05.160Z,2.92
2022-12-08T14:35:33.761Z,2.93
2022-12-08T14:38:21.481Z,2.86
2022-12-08T14:41:09.111Z,2.85
2022-12-08T14:43:35.994Z,2.84
2022-12-08T14:46:18.519Z,2.72
2022-12-08T14:48:44.953Z,2.66
2022-12-08T14:51:32.696Z,2.63
2022-12-08T14:54:13.164Z,2.72
2022-12-08T14:56:51.672Z,2.73
2022-12-08T14:59:30.066Z,2.65
2022-12-08T15:02:24.505Z,2.60
2022-12-08T15:05:01.630Z,2.53
2022-12-08T15:07:31.741Z,2.56
2022-12-08T15:10:16.180Z,2.51
2022-12-08T15:13:16.304Z,2.43
2022-12-08T15:15:51.726Z,2.39
2022-12-08T15:18:29.790Z,2.44
2022-12-08T15:21:02.966Z,2.46
2022-12-08T15:23:32.735Z,2.46
2022-12-08T15:25:59.586Z,2.47
2022-12-08T15:28:30.275Z,2.38
2022-12-08T15:30:57.837Z,2.44
2022-12-08T15:33:24.483Z,2.42
2022-12-08T15:35:51.441Z,2.38
2022-12-08T15:38:23.134Z,2.43
2022-12-08T15:40:49.600Z,2.41
2022-12-08T15:43:16.066Z,2.36
2022-12-08T15:45:51.941Z,2.31
2022-12-08T15:48:29.741Z,2.42
2022-12-08T15:50:56.736Z,2.37
2022-12-08T15:53:23.404Z,2.44
2022-12-08T15:56:18.956Z,2.39
2022-12-08T15:58:55.060Z,2.39
2022-12-08T16:01:22.579Z,2.40
2022-12-08T16:09:36.244Z,2.54
2022-12-08T16:12:21.668Z,2.64
2022-12-08T16:17:35.186Z,2.69
2022-12-08T16:20:02.168Z,2.76
2022-12-08T16:25:19.940Z,2.70
2022-12-08T16:30:42.138Z,2.68
2022-12-08T16:33:10.450Z,2.68
2022-12-08T16:35:36.875Z,2.71
2022-12-08T16:38:03.897Z,2.76
2022-12-08T16:40:30.867Z,2.85
2022-12-08T16:42:57.236Z,2.83
2022-12-08T16:45:26.521Z,2.90
2022-12-08T16:47:57.470Z,2.75
2022-12-08T16:50:30.113Z,2.77
2022-12-08T16:52:57.859Z,2.83
2022-12-08T16:55:24.279Z,2.91
2022-12-08T16:57:50.748Z,2.91
2022-12-08T17:00:20.934Z,2.88
2022-12-08T17:02:47.718Z,2.86
2022-12-08T17:05:16.959Z,3.01
2022-12-08T17:07:45.029Z,2.97
2022-12-08T17:10:14.544Z,2.88
2022-12-08T17:12:41.273Z,2.94
2022-12-08T17:15:10.920Z,2.90
2022-12-08T17:17:38.251Z,2.82
2022-12-08T17:20:08.299Z,2.87
2022-12-08T17:22:35.492Z,2.86
2022-12-08T17:25:02.615Z,2.99
2022-12-08T17:27:29.069Z,2.86
2022-12-08T17:29:55.464Z,2.84
2022-12-08T17:32:22.059Z,2.78
2022-12-08T17:34:48.963Z,2.86
2022-12-08T17:37:17.118Z,2.83
2022-12-08T17:39:43.667Z,2.91
2022-12-08T17:42:10.170Z,2.88
2022-12-08T17:44:36.704Z,2.94
2022-12-08T17:47:04.998Z,2.86
2022-12-08T17:49:32.882Z,3.02
2022-12-08T17:52:02.359Z,2.91
2022-12-08T17:54:29.243Z,2.92
2022-12-08T17:56:58.470Z,2.94
2022-12-08T17:59:26.524Z,2.85
2022-12-08T18:01:53.997Z,2.95
2022-12-08T18:04:20.338Z,2.85
2022-12-08T18:06:46.858Z,2.92
2022-12-08T18:09:14.696Z,2.93
2022-12-08T18:11:41.556Z,2.93
2022-12-08T18:14:11.205Z,2.94
2022-12-08T18:16:40.162Z,2.93
2022-12-08T18:19:07.975Z,2.86
2022-12-08T18:21:35.122Z,2.83
2022-12-08T18:24:01.843Z,2.93
2022-12-08T18:26:29.059Z,3.01
2022-12-08T18:28:55.464Z,2.93
2022-12-08T18:31:22.928Z,2.86
2022-12-08T18:33:50.795Z,2.85
2022-12-08T18:36:20.111Z,2.87
2022-12-08T18:38:47.059Z,2.82
2022-12-08T18:41:20.908Z,2.75
2022-12-08T18:43:47.348Z,2.80
2022-12-08T18:46:14.802Z,2.87
2022-12-08T18:48:46.173Z,2.81
2022-12-08T18:51:14.993Z,2.81
2022-12-08T18:53:41.629Z,2.71
2022-12-08T18:56:08.881Z,2.60
2022-12-08T18:58:35.671Z,2.72
2022-12-08T19:01:02.211Z,2.60
2022-12-08T19:03:28.653Z,2.81
2022-12-08T19:06:05.180Z,2.69
2022-12-08T19:08:31.999Z,2.65
2022-12-08T19:10:58.802Z,2.67
2022-12-08T19:13:25.378Z,2.80
2022-12-08T19:15:51.779Z,2.71
2022-12-08T19:18:18.201Z,2.76
2022-12-08T19:20:44.618Z,2.69
2022-12-08T19:23:13.092Z,2.60
2022-12-08T19:25:39.919Z,2.70
2022-12-08T19:28:06.440Z,2.71
2022-12-08T19:30:33.572Z,2.72
2022-12-08T19:32:59.975Z,2.68
2022-12-08T19:35:26.359Z,2.73
2022-12-08T19:37:54.676Z,2.65
2022-12-08T19:40:39.836Z,2.67
2022-12-08T19:43:34.764Z,2.55
2022-12-08T19:46:01.398Z,2.60
2022-12-08T19:48:28.215Z,2.55
2022-12-08T19:50:54.575Z,2.57
2022-12-08T19:53:21.501Z,2.57
2022-12-08T19:55:48.087Z,2.55
2022-12-08T19:58:14.573Z,2.61
2022-12-08T20:00:41.907Z,2.65
2022-12-08T20:03:08.842Z,2.60
2022-12-08T20:05:36.968Z,2.59
2022-12-08T20:08:03.506Z,2.63
2022-12-08T20:10:35.595Z,2.58
2022-12-08T20:13:20.958Z,2.65
2022-12-08T20:15:47.488Z,2.56
2022-12-08T20:18:15.228Z,2.59
2022-12-08T20:20:42.645Z,2.57
2022-12-08T20:23:09.210Z,2.54
2022-12-08T20:25:38.918Z,2.63
2022-12-08T20:28:06.246Z,2.61
2022-12-08T20:30:32.724Z,2.56
2022-12-08T20:32:59.129Z,2.56
2022-12-08T20:35:25.580Z,2.54
2022-12-08T20:37:51.992Z,2.54
2022-12-08T20:40:18.508Z,2.54
2022-12-08T20:42:44.942Z,2.52
2022-12-08T20:45:11.442Z,2.43
2022-12-08T20:47:38.009Z,2.33
2022-12-08T20:50:07.073Z,2.33
2022-12-08T20:52:33.876Z,2.33
2022-12-08T20:55:00.592Z,2.24
2022-12-08T20:57:27.164Z,2.28
2022-12-08T20:59:53.663Z,2.19
2022-12-08T21:02:20.214Z,2.10
2022-12-08T21:04:46.852Z,2.10
2022-12-08T21:07:13.505Z,2.11
2022-12-08T21:09:40.172Z,2.15
2022-12-08T21:12:06.981Z,2.05
2022-12-08T21:14:33.494Z,2.06
2022-12-08T21:16:59.982Z,2.05
2022-12-08T21:19:26.872Z,2.08
2022-12-08T21:21:53.447Z,2.03
2022-12-08T21:24:20.627Z,1.96
2022-12-08T21:26:47.395Z,1.94
2022-12-08T21:29:14.045Z,2.00
2022-12-08T21:31:40.820Z,1.91
2022-12-08T21:34:07.405Z,1.87
2022-12-08T21:36:34.054Z,1.95
2022-12-08T21:39:02.425Z,1.85
2022-12-08T21:41:48.337Z,1.78
2022-12-08T21:44:18.711Z,1.78
2022-12-08T21:46:45.438Z,1.76
2022-12-08T21:49:12.331Z,1.78
2022-12-08T21:51:41.947Z,1.76
2022-12-08T21:54:18.058Z,1.75
2022-12-08T21:56:45.951Z,1.64
2022-12-08T21:59:12.527Z,1.63
2022-12-08T22:01:39.121Z,1.67
2022-12-08T22:04:05.947Z,1.63
2022-12-08T22:06:32.609Z,1.62
2022-12-08T22:08:59.277Z,1.58
2022-12-08T22:11:25.768Z,1.66
2022-12-08T22:13:52.405Z,1.60
2022-12-08T22:16:18.881Z,1.62
2022-12-08T22:18:45.559Z,1.61
2022-12-08T22:21:15.395Z,1.59
2022-12-08T22:23:42.915Z,1.56
2022-12-08T22:26:10.644Z,1.63
2022-12-08T22:28:40.229Z,1.64
2022-12-08T22:31:18.393Z,1.61
2022-12-08T22:33:44.969Z,1.59
2022-12-08T22:36:19.053Z,1.59
2022-12-08T22:38:46.347Z,1.57
2022-12-08T22:41:13.429Z,1.66
2022-12-08T22:43:40.728Z,1.68
2022-12-08T22:46:12.081Z,1.56
2022-12-08T22:48:39.125Z,1.63
2022-12-08T22:51:05.734Z,1.64
2022-12-08T22:53:32.685Z,1.57
2022-12-08T22:55:59.135Z,1.53
2022-12-08T22:58:25.649Z,1.51
2022-12-08T23:00:52.126Z,1.51
2022-12-08T23:03:18.577Z,1.51
2022-12-08T23:05:45.070Z,1.48
2022-12-08T23:08:15.401Z,1.44
2022-12-08T23:10:42.788Z,1.52
2022-12-08T23:13:09.688Z,1.44
2022-12-08T23:15:36.197Z,1.42
2022-12-08T23:18:02.798Z,1.46
2022-12-08T23:20:29.254Z,1.48
2022-12-08T23:22:55.896Z,1.51
2022-12-08T23:25:22.484Z,1.44
2022-12-08T23:27:48.932Z,1.48
2022-12-08T23:30:15.457Z,1.46
2022-12-08T23:32:41.992Z,1.48
2022-12-08T23:35:09.036Z,1.58
2022-12-08T23:37:36.086Z,1.58
2022-12-08T23:40:02.701Z,1.53
2022-12-08T23:42:30.478Z,1.52
2022-12-08T23:44:56.982Z,1.49
2022-12-08T23:47:23.519Z,1.54
2022-12-08T23:49:49.941Z,1.52
2022-12-08T23:52:16.507Z,1.54
2022-12-08T23:54:44.431Z,1.56
2022-12-08T23:57:11.169Z,1.53
2022-12-08T23:59:37.768Z,1.53
